Details From KVLL - OAKLAND TROY
To KMCD - MACKINAC ISLAND
Flight Number -
Tags generated
Created
Modified
Stats Distance 219 nm / 406 km
Max Altitude 21,400 ft / 6,523 m
Waypoints 4
Social Downloads 0
Likes 0
Share VATSIM

Download

Looking for another format? Having issues loading an existing format? Contact us
Advertisement - Login to hide

Notes

Basic altitude profile: - Ascent Rate: 2000ft/min - Ascent Speed: 180kts - Cruise Altitude: 16000ft - Cruise Speed: 270kts - Descent Rate: 1300ft/min - Descent Speed: 240kts Options: - Use NATs: yes - Use PACOTS: yes - Use low airways: no - Use high airways: yes

Route

KVLL DIRKS ASP KMCD

ID Type Via Altitude Latitude Longitude Leg Dist Tot Dist Heading (true) Name
O KVLL APT - 0 ft / 0 m 42.54294˚ -83.17791˚ - 0 nm - OAKLAND TROY
DIRKS FIX - 20,700 ft / 6,309 m 43.49928˚ -83.64804˚ 61 nm 61 nm 340° / 340° -
ASP DME - 21,400 ft / 6,523 m 44.44913˚ -83.39428˚ 58 nm 119 nm 11° / 11° AU SABLE VOR-DME
O KMCD APT - 0 ft / 0 m 45.86494˚ -84.63734˚ 100 nm 219 nm 329° / 328° MACKINAC ISLAND

Altitude Profile

Advertisement - Login to hide

Weather


0- 5 10 15 20 25 30 35+ Temperature / ° C

Clouds and Precipitation
Forecast for 2017-12-17 00:00 UTC. Updated a few seconds ago

Ground ~20,000 ft ~40,000 ft Winds

KVLL

Details ICAO KVLL
Name OAKLAND TROY
Region United States
Timezone America/Detroit (UTC-5.0)
Stats Elevation 729 ft / 222 m (AMSL)
Location 42.542944° -83.177908°
Runways 1
Magnetic Variation 7.498° W

METAR

KVLL 161915Z AUTO 06007KT 10SM OVC016 M02/M06 A3001 RMK AO2 T10241056

Decode

TAF

Not found

Departure Runways

ID Width Length Bearing (true) Bearing (mag) Surface Threshold Offset Overrun Length
09 60 ft / 18 m 3,541 ft / 1,079 m 89.70° 97.20° Asphalt 0 ft / 0 m 250 ft / 76 m
27 60 ft / 18 m 3,541 ft / 1,079 m 269.70° 277.20° Asphalt 0 ft / 0 m 0 ft / 0 m

KMCD

Details ICAO KMCD
Name MACKINAC ISLAND
Region United States
Timezone America/Detroit (UTC-5.0)
Stats Elevation 740 ft / 226 m (AMSL)
Location 45.864935° -84.637344°
Runways 1
Magnetic Variation 7.132° W

METAR

KMCD 161915Z AUTO 03007KT 10SM BKN014 M12/M17 A3008 RMK AO2 T11251167

Decode

TAF

Not found

Destination Runways

ID Width Length Bearing (true) Bearing (mag) Surface Threshold Offset Overrun Length
08 75 ft / 23 m 3,492 ft / 1,065 m 75.21° 82.34° Asphalt 0 ft / 0 m 0 ft / 0 m
26 75 ft / 23 m 3,492 ft / 1,065 m 255.22° 262.35° Asphalt 0 ft / 0 m 0 ft / 0 m